sensor_id;sensor_type;location;lat;lon;timestamp;P1;durP1;ratioP1;P2;durP2;ratioP2
52512;SDS011;38422;53.172;6.974;2023-02-28T00:01:20;4.00;;;1.70;;
52512;SDS011;38422;53.172;6.974;2023-02-28T00:03:46;4.20;;;1.67;;
52512;SDS011;38422;53.172;6.974;2023-02-28T00:06:11;8.30;;;2.28;;
52512;SDS011;38422;53.172;6.974;2023-02-28T00:08:37;4.18;;;1.90;;
52512;SDS011;38422;53.172;6.974;2023-02-28T00:11:08;5.43;;;2.00;;
52512;SDS011;38422;53.172;6.974;2023-02-28T00:13:36;4.93;;;2.08;;
52512;SDS011;38422;53.172;6.974;2023-02-28T00:16:05;5.88;;;2.10;;
52512;SDS011;38422;53.172;6.974;2023-02-28T00:18:32;4.65;;;1.90;;
52512;SDS011;38422;53.172;6.974;2023-02-28T00:20:58;7.18;;;2.30;;
52512;SDS011;38422;53.172;6.974;2023-02-28T00:23:24;6.03;;;2.67;;
52512;SDS011;38422;53.172;6.974;2023-02-28T00:25:51;9.82;;;3.60;;
52512;SDS011;38422;53.172;6.974;2023-02-28T00:28:17;6.45;;;3.10;;
52512;SDS011;38422;53.172;6.974;2023-02-28T00:30:43;7.03;;;2.58;;
52512;SDS011;38422;53.172;6.974;2023-02-28T00:33:09;6.78;;;2.70;;
52512;SDS011;38422;53.172;6.974;2023-02-28T00:35:35;22.38;;;11.13;;
52512;SDS011;38422;53.172;6.974;2023-02-28T00:38:01;13.38;;;7.68;;
52512;SDS011;38422;53.172;6.974;2023-02-28T00:40:27;10.80;;;5.47;;
52512;SDS011;38422;53.172;6.974;2023-02-28T00:42:53;9.30;;;4.38;;
52512;SDS011;38422;53.172;6.974;2023-02-28T00:45:19;9.73;;;4.47;;
52512;SDS011;38422;53.172;6.974;2023-02-28T00:47:47;11.68;;;4.10;;
52512;SDS011;38422;53.172;6.974;2023-02-28T00:50:16;5.57;;;3.00;;
52512;SDS011;38422;53.172;6.974;2023-02-28T00:52:43;6.43;;;2.70;;
52512;SDS011;38422;53.172;6.974;2023-02-28T00:55:09;5.95;;;2.55;;
52512;SDS011;38422;53.172;6.974;2023-02-28T00:57:35;5.55;;;2.67;;
52512;SDS011;38422;53.172;6.974;2023-02-28T01:00:01;8.52;;;2.78;;
52512;SDS011;38422;53.172;6.974;2023-02-28T01:02:27;7.40;;;2.97;;
52512;SDS011;38422;53.172;6.974;2023-02-28T01:04:53;6.45;;;2.83;;
52512;SDS011;38422;53.172;6.974;2023-02-28T01:07:19;5.90;;;3.20;;
52512;SDS011;38422;53.172;6.974;2023-02-28T01:09:44;7.30;;;3.13;;
52512;SDS011;38422;53.172;6.974;2023-02-28T01:12:10;6.60;;;2.97;;
52512;SDS011;38422;53.172;6.974;2023-02-28T01:14:36;5.75;;;2.95;;
52512;SDS011;38422;53.172;6.974;2023-02-28T01:17:01;6.00;;;3.17;;
52512;SDS011;38422;53.172;6.974;2023-02-28T01:19:27;5.95;;;3.10;;
52512;SDS011;38422;53.172;6.974;2023-02-28T01:21:53;7.20;;;3.00;;
52512;SDS011;38422;53.172;6.974;2023-02-28T01:24:18;7.20;;;3.30;;
52512;SDS011;38422;53.172;6.974;2023-02-28T01:26:44;6.75;;;3.00;;
52512;SDS011;38422;53.172;6.974;2023-02-28T01:29:10;9.13;;;3.13;;
52512;SDS011;38422;53.172;6.974;2023-02-28T01:31:36;7.85;;;3.53;;
52512;SDS011;38422;53.172;6.974;2023-02-28T01:34:02;7.57;;;3.28;;
52512;SDS011;38422;53.172;6.974;2023-02-28T01:36:28;6.97;;;3.15;;
52512;SDS011;38422;53.172;6.974;2023-02-28T01:38:54;9.18;;;3.30;;
52512;SDS011;38422;53.172;6.974;2023-02-28T01:43:57;6.75;;;3.47;;
52512;SDS011;38422;53.172;6.974;2023-02-28T01:46:32;7.55;;;2.92;;
52512;SDS011;38422;53.172;6.974;2023-02-28T01:49:05;8.38;;;3.30;;
52512;SDS011;38422;53.172;6.974;2023-02-28T01:54:06;5.55;;;2.70;;
52512;SDS011;38422;53.172;6.974;2023-02-28T01:56:38;8.05;;;3.30;;
52512;SDS011;38422;53.172;6.974;2023-02-28T01:59:08;8.50;;;3.38;;
52512;SDS011;38422;53.172;6.974;2023-02-28T02:01:35;8.30;;;3.43;;
52512;SDS011;38422;53.172;6.974;2023-02-28T02:04:01;5.40;;;3.05;;
52512;SDS011;38422;53.172;6.974;2023-02-28T02:06:30;6.00;;;3.03;;
52512;SDS011;38422;53.172;6.974;2023-02-28T02:09:06;8.18;;;3.55;;
52512;SDS011;38422;53.172;6.974;2023-02-28T02:11:32;7.85;;;3.22;;
52512;SDS011;38422;53.172;6.974;2023-02-28T02:14:22;7.97;;;3.10;;
52512;SDS011;38422;53.172;6.974;2023-02-28T02:20:16;6.00;;;3.40;;
52512;SDS011;38422;53.172;6.974;2023-02-28T02:31:06;5.93;;;3.45;;
52512;SDS011;38422;53.172;6.974;2023-02-28T02:36:55;8.15;;;3.40;;
52512;SDS011;38422;53.172;6.974;2023-02-28T02:39:36;6.32;;;3.20;;
52512;SDS011;38422;53.172;6.974;2023-02-28T02:42:28;8.43;;;3.40;;
52512;SDS011;38422;53.172;6.974;2023-02-28T02:45:13;6.22;;;3.55;;
52512;SDS011;38422;53.172;6.974;2023-02-28T02:47:44;6.15;;;3.53;;
52512;SDS011;38422;53.172;6.974;2023-02-28T02:50:16;6.97;;;3.50;;
52512;SDS011;38422;53.172;6.974;2023-02-28T02:52:46;7.30;;;3.40;;
52512;SDS011;38422;53.172;6.974;2023-02-28T02:55:16;7.85;;;3.70;;
52512;SDS011;38422;53.172;6.974;2023-02-28T02:57:54;6.00;;;3.60;;
52512;SDS011;38422;53.172;6.974;2023-02-28T03:00:33;11.60;;;4.40;;
52512;SDS011;38422;53.172;6.974;2023-02-28T03:03:02;8.27;;;4.00;;
52512;SDS011;38422;53.172;6.974;2023-02-28T03:05:34;7.35;;;3.80;;
52512;SDS011;38422;53.172;6.974;2023-02-28T03:08:06;7.03;;;4.20;;
52512;SDS011;38422;53.172;6.974;2023-02-28T03:10:37;8.30;;;4.20;;
52512;SDS011;38422;53.172;6.974;2023-02-28T03:13:12;7.20;;;3.50;;
52512;SDS011;38422;53.172;6.974;2023-02-28T03:15:57;7.85;;;3.80;;
52512;SDS011;38422;53.172;6.974;2023-02-28T03:18:59;6.15;;;3.60;;
52512;SDS011;38422;53.172;6.974;2023-02-28T03:27:16;7.95;;;3.85;;
52512;SDS011;38422;53.172;6.974;2023-02-28T03:29:58;6.80;;;4.28;;
52512;SDS011;38422;53.172;6.974;2023-02-28T03:35:16;6.55;;;3.90;;
52512;SDS011;38422;53.172;6.974;2023-02-28T03:37:47;7.22;;;4.45;;
52512;SDS011;38422;53.172;6.974;2023-02-28T03:40:22;8.55;;;4.32;;
52512;SDS011;38422;53.172;6.974;2023-02-28T03:42:54;6.30;;;3.70;;
52512;SDS011;38422;53.172;6.974;2023-02-28T03:45:25;7.38;;;4.10;;
52512;SDS011;38422;53.172;6.974;2023-02-28T03:50:35;6.15;;;4.07;;
52512;SDS011;38422;53.172;6.974;2023-02-28T03:53:36;6.38;;;3.85;;
52512;SDS011;38422;53.172;6.974;2023-02-28T03:56:12;7.28;;;4.20;;
52512;SDS011;38422;53.172;6.974;2023-02-28T03:58:45;5.70;;;4.07;;
52512;SDS011;38422;53.172;6.974;2023-02-28T04:01:40;8.68;;;4.40;;
52512;SDS011;38422;53.172;6.974;2023-02-28T04:04:08;9.88;;;4.70;;
52512;SDS011;38422;53.172;6.974;2023-02-28T04:06:35;7.57;;;4.38;;
52512;SDS011;38422;53.172;6.974;2023-02-28T04:09:01;9.52;;;4.50;;
52512;SDS011;38422;53.172;6.974;2023-02-28T04:11:39;6.07;;;3.88;;
52512;SDS011;38422;53.172;6.974;2023-02-28T04:14:07;6.95;;;3.63;;
52512;SDS011;38422;53.172;6.974;2023-02-28T04:19:04;7.13;;;4.20;;
52512;SDS011;38422;53.172;6.974;2023-02-28T04:21:32;6.10;;;4.00;;
52512;SDS011;38422;53.172;6.974;2023-02-28T04:24:00;7.25;;;4.10;;
52512;SDS011;38422;53.172;6.974;2023-02-28T04:26:33;7.55;;;4.25;;
52512;SDS011;38422;53.172;6.974;2023-02-28T04:29:00;6.30;;;4.20;;
52512;SDS011;38422;53.172;6.974;2023-02-28T04:31:26;6.90;;;4.40;;
52512;SDS011;38422;53.172;6.974;2023-02-28T04:33:52;7.75;;;4.28;;
52512;SDS011;38422;53.172;6.974;2023-02-28T04:36:18;5.47;;;3.80;;
52512;SDS011;38422;53.172;6.974;2023-02-28T04:38:44;6.32;;;4.07;;
52512;SDS011;38422;53.172;6.974;2023-02-28T04:41:10;8.48;;;4.47;;
52512;SDS011;38422;53.172;6.974;2023-02-28T04:43:37;7.70;;;4.40;;
52512;SDS011;38422;53.172;6.974;2023-02-28T04:46:04;8.68;;;4.00;;
52512;SDS011;38422;53.172;6.974;2023-02-28T04:48:31;7.13;;;4.50;;
52512;SDS011;38422;53.172;6.974;2023-02-28T04:51:05;8.82;;;4.10;;
52512;SDS011;38422;53.172;6.974;2023-02-28T04:53:33;7.35;;;4.20;;
52512;SDS011;38422;53.172;6.974;2023-02-28T04:56:00;6.82;;;4.10;;
52512;SDS011;38422;53.172;6.974;2023-02-28T04:58:26;6.55;;;4.10;;
52512;SDS011;38422;53.172;6.974;2023-02-28T05:00:53;6.72;;;3.90;;
52512;SDS011;38422;53.172;6.974;2023-02-28T05:03:25;8.35;;;4.68;;
52512;SDS011;38422;53.172;6.974;2023-02-28T05:05:51;6.32;;;4.25;;
52512;SDS011;38422;53.172;6.974;2023-02-28T05:08:17;7.43;;;4.38;;
52512;SDS011;38422;53.172;6.974;2023-02-28T05:10:42;8.05;;;4.40;;
52512;SDS011;38422;53.172;6.974;2023-02-28T05:13:10;8.15;;;4.95;;
52512;SDS011;38422;53.172;6.974;2023-02-28T05:15:37;8.10;;;5.10;;
52512;SDS011;38422;53.172;6.974;2023-02-28T05:18:03;8.48;;;4.95;;
52512;SDS011;38422;53.172;6.974;2023-02-28T05:20:28;11.38;;;6.05;;
52512;SDS011;38422;53.172;6.974;2023-02-28T05:22:54;8.93;;;5.00;;
52512;SDS011;38422;53.172;6.974;2023-02-28T05:25:21;9.20;;;5.22;;
52512;SDS011;38422;53.172;6.974;2023-02-28T05:30:13;8.32;;;5.28;;
52512;SDS011;38422;53.172;6.974;2023-02-28T05:32:39;10.48;;;5.68;;
52512;SDS011;38422;53.172;6.974;2023-02-28T05:35:09;7.85;;;5.40;;
52512;SDS011;38422;53.172;6.974;2023-02-28T05:37:36;9.00;;;5.43;;
52512;SDS011;38422;53.172;6.974;2023-02-28T05:40:03;10.52;;;5.82;;
52512;SDS011;38422;53.172;6.974;2023-02-28T05:42:35;9.40;;;5.13;;
52512;SDS011;38422;53.172;6.974;2023-02-28T05:45:01;7.95;;;5.38;;
52512;SDS011;38422;53.172;6.974;2023-02-28T05:47:27;9.23;;;5.78;;
52512;SDS011;38422;53.172;6.974;2023-02-28T05:49:53;9.70;;;6.03;;
52512;SDS011;38422;53.172;6.974;2023-02-28T05:52:18;11.07;;;5.88;;
52512;SDS011;38422;53.172;6.974;2023-02-28T05:54:45;9.90;;;5.78;;
52512;SDS011;38422;53.172;6.974;2023-02-28T05:57:11;8.70;;;5.75;;
52512;SDS011;38422;53.172;6.974;2023-02-28T05:59:37;10.40;;;5.65;;
52512;SDS011;38422;53.172;6.974;2023-02-28T06:02:05;8.55;;;5.88;;
52512;SDS011;38422;53.172;6.974;2023-02-28T06:04:35;8.10;;;5.53;;
52512;SDS011;38422;53.172;6.974;2023-02-28T06:07:01;9.13;;;5.78;;
52512;SDS011;38422;53.172;6.974;2023-02-28T06:09:27;9.05;;;6.13;;
52512;SDS011;38422;53.172;6.974;2023-02-28T06:11:52;9.48;;;5.90;;
52512;SDS011;38422;53.172;6.974;2023-02-28T06:14:19;8.82;;;5.80;;
52512;SDS011;38422;53.172;6.974;2023-02-28T06:16:46;10.57;;;6.33;;
52512;SDS011;38422;53.172;6.974;2023-02-28T06:19:12;13.20;;;7.32;;
52512;SDS011;38422;53.172;6.974;2023-02-28T06:21:38;10.00;;;6.65;;
52512;SDS011;38422;53.172;6.974;2023-02-28T06:24:04;15.13;;;8.32;;
52512;SDS011;38422;53.172;6.974;2023-02-28T06:26:31;10.57;;;7.18;;
52512;SDS011;38422;53.172;6.974;2023-02-28T06:28:57;13.13;;;7.43;;
52512;SDS011;38422;53.172;6.974;2023-02-28T06:31:23;12.20;;;7.22;;
52512;SDS011;38422;53.172;6.974;2023-02-28T06:36:16;11.75;;;7.63;;
52512;SDS011;38422;53.172;6.974;2023-02-28T06:38:42;11.88;;;7.18;;
52512;SDS011;38422;53.172;6.974;2023-02-28T06:41:08;12.07;;;7.50;;
52512;SDS011;38422;53.172;6.974;2023-02-28T06:43:38;12.13;;;7.53;;
52512;SDS011;38422;53.172;6.974;2023-02-28T06:46:07;12.95;;;7.80;;
52512;SDS011;38422;53.172;6.974;2023-02-28T06:48:34;14.13;;;8.35;;
52512;SDS011;38422;53.172;6.974;2023-02-28T06:51:07;11.18;;;7.53;;
52512;SDS011;38422;53.172;6.974;2023-02-28T06:53:35;11.85;;;8.48;;
52512;SDS011;38422;53.172;6.974;2023-02-28T06:56:05;13.38;;;8.45;;
52512;SDS011;38422;53.172;6.974;2023-02-28T06:58:32;12.10;;;8.30;;
52512;SDS011;38422;53.172;6.974;2023-02-28T07:00:58;13.55;;;8.23;;
52512;SDS011;38422;53.172;6.974;2023-02-28T07:03:23;13.70;;;7.60;;
52512;SDS011;38422;53.172;6.974;2023-02-28T07:05:49;12.85;;;8.18;;
52512;SDS011;38422;53.172;6.974;2023-02-28T07:08:15;9.35;;;6.80;;
52512;SDS011;38422;53.172;6.974;2023-02-28T07:10:42;13.77;;;7.47;;
52512;SDS011;38422;53.172;6.974;2023-02-28T07:13:08;12.55;;;7.25;;
52512;SDS011;38422;53.172;6.974;2023-02-28T07:15:34;14.63;;;7.53;;
52512;SDS011;38422;53.172;6.974;2023-02-28T07:18:00;14.00;;;7.70;;
52512;SDS011;38422;53.172;6.974;2023-02-28T07:20:26;11.18;;;6.97;;
52512;SDS011;38422;53.172;6.974;2023-02-28T07:22:52;10.25;;;6.78;;
52512;SDS011;38422;53.172;6.974;2023-02-28T07:25:30;10.80;;;7.05;;
52512;SDS011;38422;53.172;6.974;2023-02-28T07:27:56;13.98;;;7.20;;
52512;SDS011;38422;53.172;6.974;2023-02-28T07:30:24;12.70;;;6.68;;
52512;SDS011;38422;53.172;6.974;2023-02-28T07:32:49;11.27;;;6.95;;
52512;SDS011;38422;53.172;6.974;2023-02-28T07:35:15;11.45;;;6.70;;
52512;SDS011;38422;53.172;6.974;2023-02-28T07:37:41;12.93;;;6.72;;
52512;SDS011;38422;53.172;6.974;2023-02-28T07:40:08;11.30;;;6.80;;
52512;SDS011;38422;53.172;6.974;2023-02-28T07:42:38;10.60;;;6.78;;
52512;SDS011;38422;53.172;6.974;2023-02-28T07:45:06;10.77;;;7.00;;
52512;SDS011;38422;53.172;6.974;2023-02-28T07:47:32;11.20;;;7.20;;
52512;SDS011;38422;53.172;6.974;2023-02-28T07:49:58;11.55;;;6.72;;
52512;SDS011;38422;53.172;6.974;2023-02-28T07:52:24;12.95;;;6.38;;
52512;SDS011;38422;53.172;6.974;2023-02-28T07:54:50;11.25;;;6.20;;
52512;SDS011;38422;53.172;6.974;2023-02-28T07:57:16;12.38;;;6.65;;
52512;SDS011;38422;53.172;6.974;2023-02-28T07:59:42;8.52;;;6.32;;
52512;SDS011;38422;53.172;6.974;2023-02-28T08:02:15;17.30;;;7.50;;
52512;SDS011;38422;53.172;6.974;2023-02-28T08:04:41;10.63;;;6.95;;
52512;SDS011;38422;53.172;6.974;2023-02-28T08:07:07;11.30;;;7.07;;
52512;SDS011;38422;53.172;6.974;2023-02-28T08:09:34;12.67;;;7.07;;
52512;SDS011;38422;53.172;6.974;2023-02-28T08:12:00;12.25;;;7.00;;
52512;SDS011;38422;53.172;6.974;2023-02-28T08:14:25;10.25;;;6.43;;
52512;SDS011;38422;53.172;6.974;2023-02-28T08:16:51;10.40;;;6.60;;
52512;SDS011;38422;53.172;6.974;2023-02-28T08:19:16;13.82;;;7.10;;
52512;SDS011;38422;53.172;6.974;2023-02-28T08:21:42;11.93;;;6.85;;
52512;SDS011;38422;53.172;6.974;2023-02-28T08:24:08;9.63;;;6.78;;
52512;SDS011;38422;53.172;6.974;2023-02-28T08:26:34;11.43;;;7.20;;
52512;SDS011;38422;53.172;6.974;2023-02-28T08:28:59;11.10;;;7.30;;
52512;SDS011;38422;53.172;6.974;2023-02-28T08:31:25;11.52;;;7.32;;
52512;SDS011;38422;53.172;6.974;2023-02-28T08:33:51;11.82;;;7.47;;
52512;SDS011;38422;53.172;6.974;2023-02-28T08:36:18;15.25;;;7.88;;
52512;SDS011;38422;53.172;6.974;2023-02-28T08:38:44;12.18;;;7.93;;
52512;SDS011;38422;53.172;6.974;2023-02-28T08:41:11;11.68;;;7.68;;
52512;SDS011;38422;53.172;6.974;2023-02-28T08:43:38;12.77;;;8.38;;
52512;SDS011;38422;53.172;6.974;2023-02-28T08:46:05;16.27;;;8.18;;
52512;SDS011;38422;53.172;6.974;2023-02-28T08:48:32;13.15;;;8.40;;
52512;SDS011;38422;53.172;6.974;2023-02-28T08:51:00;14.68;;;7.78;;
52512;SDS011;38422;53.172;6.974;2023-02-28T08:53:29;12.50;;;8.77;;
52512;SDS011;38422;53.172;6.974;2023-02-28T08:56:02;12.38;;;8.15;;
52512;SDS011;38422;53.172;6.974;2023-02-28T09:00:59;14.30;;;8.05;;
52512;SDS011;38422;53.172;6.974;2023-02-28T09:03:25;14.60;;;8.48;;
52512;SDS011;38422;53.172;6.974;2023-02-28T09:05:59;11.70;;;7.30;;
52512;SDS011;38422;53.172;6.974;2023-02-28T09:08:27;13.82;;;7.55;;
52512;SDS011;38422;53.172;6.974;2023-02-28T09:10:58;12.43;;;7.65;;
52512;SDS011;38422;53.172;6.974;2023-02-28T09:13:24;14.07;;;7.60;;
52512;SDS011;38422;53.172;6.974;2023-02-28T09:15:51;11.73;;;7.97;;
52512;SDS011;38422;53.172;6.974;2023-02-28T09:18:17;10.80;;;7.20;;
52512;SDS011;38422;53.172;6.974;2023-02-28T09:20:43;11.15;;;7.72;;
52512;SDS011;38422;53.172;6.974;2023-02-28T09:23:09;11.63;;;8.10;;
52512;SDS011;38422;53.172;6.974;2023-02-28T09:25:36;13.02;;;8.18;;
52512;SDS011;38422;53.172;6.974;2023-02-28T09:28:02;13.80;;;8.90;;
52512;SDS011;38422;53.172;6.974;2023-02-28T09:30:28;10.77;;;7.55;;
52512;SDS011;38422;53.172;6.974;2023-02-28T09:32:54;12.75;;;7.80;;
52512;SDS011;38422;53.172;6.974;2023-02-28T09:35:21;12.13;;;7.88;;
52512;SDS011;38422;53.172;6.974;2023-02-28T09:40:14;15.68;;;7.95;;
52512;SDS011;38422;53.172;6.974;2023-02-28T09:42:44;12.30;;;7.90;;
52512;SDS011;38422;53.172;6.974;2023-02-28T09:45:32;11.43;;;7.40;;
52512;SDS011;38422;53.172;6.974;2023-02-28T09:48:02;11.55;;;7.80;;
52512;SDS011;38422;53.172;6.974;2023-02-28T09:50:40;12.27;;;7.45;;
52512;SDS011;38422;53.172;6.974;2023-02-28T09:53:27;12.98;;;8.23;;
52512;SDS011;38422;53.172;6.974;2023-02-28T09:55:59;12.25;;;8.15;;
52512;SDS011;38422;53.172;6.974;2023-02-28T09:58:42;13.05;;;8.38;;
52512;SDS011;38422;53.172;6.974;2023-02-28T10:06:50;12.45;;;8.07;;
52512;SDS011;38422;53.172;6.974;2023-02-28T10:09:22;11.48;;;8.07;;
52512;SDS011;38422;53.172;6.974;2023-02-28T10:11:59;12.07;;;8.10;;
52512;SDS011;38422;53.172;6.974;2023-02-28T10:14:28;12.00;;;8.23;;
52512;SDS011;38422;53.172;6.974;2023-02-28T10:16:59;12.75;;;7.85;;
52512;SDS011;38422;53.172;6.974;2023-02-28T10:22:27;9.85;;;7.43;;
52512;SDS011;38422;53.172;6.974;2023-02-28T10:25:37;11.52;;;7.72;;
52512;SDS011;38422;53.172;6.974;2023-02-28T10:27:57;10.10;;;7.25;;
52512;SDS011;38422;53.172;6.974;2023-02-28T10:30:32;12.13;;;8.23;;
52512;SDS011;38422;53.172;6.974;2023-02-28T10:32:58;9.70;;;6.70;;
52512;SDS011;38422;53.172;6.974;2023-02-28T10:35:24;14.85;;;9.95;;
52512;SDS011;38422;53.172;6.974;2023-02-28T10:40:26;9.73;;;7.20;;
52512;SDS011;38422;53.172;6.974;2023-02-28T10:45:39;9.68;;;6.20;;
52512;SDS011;38422;53.172;6.974;2023-02-28T10:50:54;8.05;;;5.68;;
52512;SDS011;38422;53.172;6.974;2023-02-28T10:56:02;7.13;;;4.90;;
52512;SDS011;38422;53.172;6.974;2023-02-28T10:58:30;8.13;;;5.25;;
52512;SDS011;38422;53.172;6.974;2023-02-28T11:01:10;8.98;;;5.47;;
52512;SDS011;38422;53.172;6.974;2023-02-28T11:03:45;8.77;;;5.82;;
52512;SDS011;38422;53.172;6.974;2023-02-28T11:06:16;11.55;;;5.85;;
52512;SDS011;38422;53.172;6.974;2023-02-28T11:09:02;8.52;;;6.10;;
52512;SDS011;38422;53.172;6.974;2023-02-28T11:11:43;8.80;;;5.95;;
52512;SDS011;38422;53.172;6.974;2023-02-28T11:14:20;10.70;;;6.05;;
52512;SDS011;38422;53.172;6.974;2023-02-28T11:16:49;7.13;;;5.40;;
52512;SDS011;38422;53.172;6.974;2023-02-28T11:19:37;8.38;;;4.50;;
52512;SDS011;38422;53.172;6.974;2023-02-28T11:22:06;7.28;;;4.60;;
52512;SDS011;38422;53.172;6.974;2023-02-28T11:24:36;8.27;;;4.72;;
52512;SDS011;38422;53.172;6.974;2023-02-28T11:27:11;7.82;;;5.03;;
52512;SDS011;38422;53.172;6.974;2023-02-28T11:29:55;6.30;;;4.45;;
52512;SDS011;38422;53.172;6.974;2023-02-28T11:32:22;6.80;;;4.07;;
52512;SDS011;38422;53.172;6.974;2023-02-28T11:37:34;6.45;;;3.97;;
52512;SDS011;38422;53.172;6.974;2023-02-28T11:40:00;7.25;;;4.30;;
52512;SDS011;38422;53.172;6.974;2023-02-28T11:45:15;7.32;;;4.47;;
52512;SDS011;38422;53.172;6.974;2023-02-28T11:50:53;7.63;;;4.38;;
52512;SDS011;38422;53.172;6.974;2023-02-28T11:53:39;6.50;;;3.97;;
52512;SDS011;38422;53.172;6.974;2023-02-28T11:56:19;6.68;;;3.83;;
52512;SDS011;38422;53.172;6.974;2023-02-28T12:05:16;5.75;;;3.65;;
52512;SDS011;38422;53.172;6.974;2023-02-28T12:11:06;5.43;;;3.75;;
52512;SDS011;38422;53.172;6.974;2023-02-28T12:14:06;6.63;;;3.28;;
52512;SDS011;38422;53.172;6.974;2023-02-28T12:16:42;6.43;;;3.97;;
52512;SDS011;38422;53.172;6.974;2023-02-28T12:19:16;7.55;;;4.03;;
52512;SDS011;38422;53.172;6.974;2023-02-28T12:22:17;6.45;;;3.80;;
52512;SDS011;38422;53.172;6.974;2023-02-28T12:27:42;5.88;;;3.70;;
52512;SDS011;38422;53.172;6.974;2023-02-28T12:33:19;5.25;;;3.60;;
52512;SDS011;38422;53.172;6.974;2023-02-28T12:35:51;7.28;;;4.00;;
52512;SDS011;38422;53.172;6.974;2023-02-28T12:38:25;5.13;;;3.28;;
52512;SDS011;38422;53.172;6.974;2023-02-28T12:41:01;5.53;;;3.30;;
52512;SDS011;38422;53.172;6.974;2023-02-28T12:43:34;5.20;;;3.30;;
52512;SDS011;38422;53.172;6.974;2023-02-28T12:46:22;5.80;;;3.50;;
52512;SDS011;38422;53.172;6.974;2023-02-28T12:48:55;6.15;;;3.65;;
52512;SDS011;38422;53.172;6.974;2023-02-28T12:51:24;4.57;;;3.75;;
52512;SDS011;38422;53.172;6.974;2023-02-28T13:04:32;6.07;;;3.63;;
52512;SDS011;38422;53.172;6.974;2023-02-28T13:10:08;5.90;;;3.78;;
52512;SDS011;38422;53.172;6.974;2023-02-28T13:12:35;5.90;;;3.23;;
52512;SDS011;38422;53.172;6.974;2023-02-28T13:15:08;5.90;;;3.60;;
52512;SDS011;38422;53.172;6.974;2023-02-28T13:17:55;5.22;;;3.65;;
52512;SDS011;38422;53.172;6.974;2023-02-28T13:20:24;6.50;;;4.10;;
52512;SDS011;38422;53.172;6.974;2023-02-28T13:23:01;7.53;;;4.30;;
52512;SDS011;38422;53.172;6.974;2023-02-28T13:27:59;6.63;;;4.10;;
52512;SDS011;38422;53.172;6.974;2023-02-28T13:33:33;6.30;;;4.18;;
52512;SDS011;38422;53.172;6.974;2023-02-28T13:38:56;7.20;;;4.68;;
52512;SDS011;38422;53.172;6.974;2023-02-28T13:47:15;4.88;;;3.70;;
52512;SDS011;38422;53.172;6.974;2023-02-28T14:02:58;6.65;;;4.10;;
52512;SDS011;38422;53.172;6.974;2023-02-28T14:05:45;6.13;;;3.72;;
52512;SDS011;38422;53.172;6.974;2023-02-28T14:08:15;5.85;;;3.97;;
52512;SDS011;38422;53.172;6.974;2023-02-28T14:10:46;4.97;;;3.53;;
52512;SDS011;38422;53.172;6.974;2023-02-28T14:16:14;5.25;;;3.63;;
52512;SDS011;38422;53.172;6.974;2023-02-28T16:08:59;6.63;;;4.15;;
52512;SDS011;38422;53.172;6.974;2023-02-28T16:11:24;6.07;;;4.47;;
52512;SDS011;38422;53.172;6.974;2023-02-28T16:13:50;5.97;;;4.10;;
52512;SDS011;38422;53.172;6.974;2023-02-28T16:16:18;9.40;;;5.20;;
52512;SDS011;38422;53.172;6.974;2023-02-28T16:18:45;9.05;;;5.70;;
52512;SDS011;38422;53.172;6.974;2023-02-28T16:21:11;8.93;;;6.38;;
52512;SDS011;38422;53.172;6.974;2023-02-28T16:23:37;9.35;;;6.03;;
52512;SDS011;38422;53.172;6.974;2023-02-28T16:26:03;8.88;;;6.10;;
52512;SDS011;38422;53.172;6.974;2023-02-28T16:28:31;8.07;;;5.60;;
52512;SDS011;38422;53.172;6.974;2023-02-28T16:31:00;7.28;;;6.00;;
52512;SDS011;38422;53.172;6.974;2023-02-28T16:33:30;8.52;;;6.15;;
52512;SDS011;38422;53.172;6.974;2023-02-28T16:35:56;9.13;;;6.03;;
52512;SDS011;38422;53.172;6.974;2023-02-28T16:38:22;8.43;;;6.20;;
52512;SDS011;38422;53.172;6.974;2023-02-28T16:43:19;8.23;;;5.65;;
52512;SDS011;38422;53.172;6.974;2023-02-28T16:45:53;9.05;;;6.20;;
52512;SDS011;38422;53.172;6.974;2023-02-28T16:48:21;7.20;;;5.68;;
52512;SDS011;38422;53.172;6.974;2023-02-28T16:50:47;7.88;;;5.97;;
52512;SDS011;38422;53.172;6.974;2023-02-28T16:53:12;8.85;;;5.93;;
52512;SDS011;38422;53.172;6.974;2023-02-28T16:55:38;8.00;;;6.03;;
52512;SDS011;38422;53.172;6.974;2023-02-28T16:58:04;9.60;;;5.65;;
52512;SDS011;38422;53.172;6.974;2023-02-28T17:00:30;9.50;;;6.65;;
52512;SDS011;38422;53.172;6.974;2023-02-28T17:02:57;8.25;;;6.05;;
52512;SDS011;38422;53.172;6.974;2023-02-28T17:05:24;6.95;;;5.70;;
52512;SDS011;38422;53.172;6.974;2023-02-28T17:07:52;9.73;;;5.93;;
52512;SDS011;38422;53.172;6.974;2023-02-28T17:10:20;8.30;;;5.93;;
52512;SDS011;38422;53.172;6.974;2023-02-28T17:12:50;7.55;;;5.93;;
52512;SDS011;38422;53.172;6.974;2023-02-28T17:15:17;8.10;;;6.18;;
52512;SDS011;38422;53.172;6.974;2023-02-28T17:17:43;9.95;;;6.40;;
52512;SDS011;38422;53.172;6.974;2023-02-28T17:20:14;10.13;;;7.37;;
52512;SDS011;38422;53.172;6.974;2023-02-28T17:22:47;9.68;;;8.10;;
52512;SDS011;38422;53.172;6.974;2023-02-28T17:25:13;9.97;;;6.57;;
52512;SDS011;38422;53.172;6.974;2023-02-28T17:27:39;8.57;;;6.60;;
52512;SDS011;38422;53.172;6.974;2023-02-28T17:30:24;8.82;;;6.60;;
52512;SDS011;38422;53.172;6.974;2023-02-28T17:32:55;7.80;;;5.97;;
52512;SDS011;38422;53.172;6.974;2023-02-28T17:35:21;9.15;;;5.78;;
52512;SDS011;38422;53.172;6.974;2023-02-28T17:37:48;8.73;;;5.97;;
52512;SDS011;38422;53.172;6.974;2023-02-28T17:40:15;7.75;;;5.57;;
52512;SDS011;38422;53.172;6.974;2023-02-28T17:42:43;8.52;;;6.03;;
52512;SDS011;38422;53.172;6.974;2023-02-28T17:45:09;8.87;;;6.30;;
52512;SDS011;38422;53.172;6.974;2023-02-28T17:47:36;10.75;;;5.97;;
52512;SDS011;38422;53.172;6.974;2023-02-28T17:53:59;7.30;;;5.65;;
52512;SDS011;38422;53.172;6.974;2023-02-28T17:56:40;10.73;;;6.78;;
52512;SDS011;38422;53.172;6.974;2023-02-28T17:59:08;9.68;;;6.95;;
52512;SDS011;38422;53.172;6.974;2023-02-28T18:01:35;9.13;;;7.25;;
52512;SDS011;38422;53.172;6.974;2023-02-28T18:04:16;9.60;;;7.13;;
52512;SDS011;38422;53.172;6.974;2023-02-28T18:06:45;8.35;;;6.85;;
52512;SDS011;38422;53.172;6.974;2023-02-28T18:09:17;9.55;;;7.65;;
52512;SDS011;38422;53.172;6.974;2023-02-28T18:11:46;10.23;;;7.55;;
52512;SDS011;38422;53.172;6.974;2023-02-28T18:14:16;10.15;;;8.00;;
52512;SDS011;38422;53.172;6.974;2023-02-28T18:16:43;9.25;;;7.50;;
52512;SDS011;38422;53.172;6.974;2023-02-28T18:19:10;9.98;;;7.35;;
52512;SDS011;38422;53.172;6.974;2023-02-28T18:21:43;11.05;;;7.85;;
52512;SDS011;38422;53.172;6.974;2023-02-28T18:24:10;10.13;;;7.75;;
52512;SDS011;38422;53.172;6.974;2023-02-28T18:26:37;10.27;;;7.83;;
52512;SDS011;38422;53.172;6.974;2023-02-28T18:29:04;8.95;;;7.70;;
52512;SDS011;38422;53.172;6.974;2023-02-28T18:31:30;8.98;;;7.22;;
52512;SDS011;38422;53.172;6.974;2023-02-28T18:33:56;9.20;;;7.00;;
52512;SDS011;38422;53.172;6.974;2023-02-28T18:36:22;10.20;;;7.30;;
52512;SDS011;38422;53.172;6.974;2023-02-28T18:38:48;8.85;;;7.43;;
52512;SDS011;38422;53.172;6.974;2023-02-28T18:41:15;9.98;;;8.32;;
52512;SDS011;38422;53.172;6.974;2023-02-28T18:43:42;10.32;;;8.38;;
52512;SDS011;38422;53.172;6.974;2023-02-28T18:46:09;10.20;;;7.35;;
52512;SDS011;38422;53.172;6.974;2023-02-28T18:48:37;9.10;;;7.50;;
52512;SDS011;38422;53.172;6.974;2023-02-28T18:51:10;8.80;;;7.00;;
52512;SDS011;38422;53.172;6.974;2023-02-28T18:53:38;9.45;;;6.20;;
52512;SDS011;38422;53.172;6.974;2023-02-28T18:56:05;9.13;;;5.90;;
52512;SDS011;38422;53.172;6.974;2023-02-28T19:00:58;10.50;;;6.13;;
52512;SDS011;38422;53.172;6.974;2023-02-28T19:03:35;8.77;;;5.20;;
52512;SDS011;38422;53.172;6.974;2023-02-28T19:09:41;8.50;;;5.75;;
52512;SDS011;38422;53.172;6.974;2023-02-28T19:35:48;7.75;;;5.00;;